Time;durP1;ratioP1;P1;durP2;ratioP2;P2;SDS_P1;SDS_P2;PMS_P1;PMS_P2;Temp;Humidity;BMP_temperature;BMP_pressure;BME280_temperature;BME280_humidity;BME280_pressure;Samples;Min_cycle;Max_cycle;Signal;HPM_P1;HPM_P2
2022/07/12 00:01:34;;;;;;;8.43;7.00;;;;;;;;;;5089122;28;20024;-70
2022/07/12 00:03:59;;;;;;;7.35;6.40;;;;;;;;;;5089106;28;20024;-71
2022/07/12 00:06:25;;;;;;;7.00;6.00;;;;;;;;;;5089259;28;20350;-71
2022/07/12 00:08:50;;;;;;;8.80;6.90;;;;;;;;;;5089294;28;20066;-71
2022/07/12 00:11:15;;;;;;;11.45;7.80;;;;;;;;;;5090174;28;20119;-71
2022/07/12 00:13:40;;;;;;;9.27;7.47;;;;;;;;;;5090578;28;20027;-70
2022/07/12 00:16:06;;;;;;;8.82;6.90;;;;;;;;;;5090153;28;20024;-70
2022/07/12 00:18:32;;;;;;;8.80;7.03;;;;;;;;;;5089470;28;20077;-70
2022/07/12 00:20:57;;;;;;;9.00;6.75;;;;;;;;;;5090037;28;20032;-70
2022/07/12 00:23:22;;;;;;;8.23;6.80;;;;;;;;;;5089833;28;20027;-70
2022/07/12 00:25:48;;;;;;;8.02;7.13;;;;;;;;;;5089432;28;20039;-71
2022/07/12 00:28:13;;;;;;;8.45;7.53;;;;;;;;;;5089074;28;20035;-70
2022/07/12 00:30:38;;;;;;;9.05;7.88;;;;;;;;;;5089074;28;20035;-70
2022/07/12 00:33:04;;;;;;;9.85;8.25;;;;;;;;;;5088759;28;20095;-70
2022/07/12 00:35:29;;;;;;;9.57;7.57;;;;;;;;;;5088533;28;20028;-70
2022/07/12 00:37:54;;;;;;;10.63;8.20;;;;;;;;;;5088629;28;20503;-70
2022/07/12 00:40:19;;;;;;;9.77;7.93;;;;;;;;;;5088548;28;20035;-71
2022/07/12 00:42:45;;;;;;;11.05;8.48;;;;;;;;;;5088424;28;20024;-70
2022/07/12 00:45:10;;;;;;;9.55;7.68;;;;;;;;;;5088562;28;20076;-70
2022/07/12 00:47:43;;;;;;;10.50;8.57;;;;;;;;;;5088439;28;20035;-70
2022/07/12 00:50:20;;;;;;;11.48;7.85;;;;;;;;;;5088526;28;20023;-70
2022/07/12 00:52:48;;;;;;;11.32;8.70;;;;;;;;;;5088469;28;20016;-70
2022/07/12 00:55:14;;;;;;;10.30;8.10;;;;;;;;;;5088620;28;20024;-70
2022/07/12 00:57:43;;;;;;;10.52;8.48;;;;;;;;;;5088376;28;20097;-70
2022/07/12 01:00:10;;;;;;;10.98;8.20;;;;;;;;;;5088740;28;20028;-70
2022/07/12 01:02:35;;;;;;;9.73;8.05;;;;;;;;;;5088429;28;20028;-70
2022/07/12 01:05:03;;;;;;;12.30;8.45;;;;;;;;;;5088198;28;20035;-71
2022/07/12 01:07:29;;;;;;;11.57;8.80;;;;;;;;;;5091643;28;20489;-71
2022/07/12 01:09:55;;;;;;;10.38;8.88;;;;;;;;;;5092393;28;20049;-71
2022/07/12 01:12:21;;;;;;;10.10;8.15;;;;;;;;;;5092412;28;20120;-71
2022/07/12 01:14:49;;;;;;;13.95;9.10;;;;;;;;;;5092799;28;20028;-71
2022/07/12 01:17:14;;;;;;;10.82;8.30;;;;;;;;;;5092159;28;20138;-71
2022/07/12 01:19:40;;;;;;;9.77;7.78;;;;;;;;;;5092134;28;20118;-71
2022/07/12 01:22:09;;;;;;;10.77;8.38;;;;;;;;;;5092539;28;20028;-70
2022/07/12 01:24:35;;;;;;;11.02;9.30;;;;;;;;;;5092233;28;20030;-70
2022/07/12 01:27:03;;;;;;;11.90;8.90;;;;;;;;;;5092132;28;20127;-71
2022/07/12 01:29:30;;;;;;;9.35;8.07;;;;;;;;;;5092261;28;20473;-71
2022/07/12 01:31:55;;;;;;;9.85;8.32;;;;;;;;;;5092100;28;20470;-71
2022/07/12 01:34:21;;;;;;;10.68;8.10;;;;;;;;;;5092114;28;20115;-71
2022/07/12 01:36:47;;;;;;;10.73;8.32;;;;;;;;;;5092324;28;20032;-71
2022/07/12 01:39:12;;;;;;;11.52;8.50;;;;;;;;;;5091870;28;20413;-71
2022/07/12 01:41:38;;;;;;;10.10;8.68;;;;;;;;;;5092231;28;20030;-70
2022/07/12 01:44:03;;;;;;;12.02;8.75;;;;;;;;;;5091861;28;20403;-71
2022/07/12 01:46:28;;;;;;;11.52;9.23;;;;;;;;;;5091837;28;20035;-72
2022/07/12 01:48:54;;;;;;;12.82;9.10;;;;;;;;;;5091767;28;20028;-71
2022/07/12 01:51:19;;;;;;;12.05;8.77;;;;;;;;;;5091785;28;20028;-71
2022/07/12 01:53:44;;;;;;;15.38;9.90;;;;;;;;;;5091827;28;20020;-71
2022/07/12 01:56:10;;;;;;;11.23;9.20;;;;;;;;;;5091721;28;20449;-71
2022/07/12 01:58:35;;;;;;;13.80;9.65;;;;;;;;;;5091624;28;20034;-72
2022/07/12 02:01:00;;;;;;;10.48;8.40;;;;;;;;;;5091830;28;20450;-72
2022/07/12 02:03:26;;;;;;;11.38;9.25;;;;;;;;;;5091646;28;20024;-72
2022/07/12 02:05:51;;;;;;;12.77;9.32;;;;;;;;;;5091633;28;20039;-71
2022/07/12 02:08:16;;;;;;;14.88;9.70;;;;;;;;;;5091466;28;20550;-72
2022/07/12 02:10:43;;;;;;;12.00;9.32;;;;;;;;;;5091541;28;20470;-72
2022/07/12 02:13:08;;;;;;;11.35;8.80;;;;;;;;;;5091639;28;20426;-71
2022/07/12 02:15:34;;;;;;;12.00;9.68;;;;;;;;;;5091341;28;20066;-72
2022/07/12 02:17:59;;;;;;;10.63;8.55;;;;;;;;;;5090880;28;20020;-72
2022/07/12 02:20:25;;;;;;;12.05;9.27;;;;;;;;;;5091476;28;20027;-71
2022/07/12 02:22:50;;;;;;;13.20;9.20;;;;;;;;;;5091222;28;20085;-71
2022/07/12 02:25:15;;;;;;;13.00;9.52;;;;;;;;;;5091757;28;20035;-71
2022/07/12 02:27:41;;;;;;;11.55;9.18;;;;;;;;;;5091052;28;20035;-71
2022/07/12 02:30:08;;;;;;;12.20;9.23;;;;;;;;;;5091018;28;20054;-71
2022/07/12 02:32:33;;;;;;;12.00;9.05;;;;;;;;;;5091075;28;20073;-71
2022/07/12 02:34:58;;;;;;;14.70;9.38;;;;;;;;;;5091204;28;20103;-71
2022/07/12 02:37:24;;;;;;;12.10;9.32;;;;;;;;;;5090907;28;20016;-71
2022/07/12 02:39:50;;;;;;;12.68;9.00;;;;;;;;;;5090774;28;20081;-70
2022/07/12 02:42:15;;;;;;;11.48;8.90;;;;;;;;;;5090657;28;20423;-71
2022/07/12 02:44:40;;;;;;;11.77;9.05;;;;;;;;;;5090925;28;20032;-71
2022/07/12 02:47:06;;;;;;;12.25;9.45;;;;;;;;;;5090727;28;20031;-71
2022/07/12 02:49:31;;;;;;;13.70;9.85;;;;;;;;;;5090525;28;20069;-71
2022/07/12 02:51:56;;;;;;;12.27;9.82;;;;;;;;;;5090725;28;20111;-71
2022/07/12 02:54:21;;;;;;;13.85;9.23;;;;;;;;;;5090844;28;20077;-71
2022/07/12 02:56:47;;;;;;;14.48;10.43;;;;;;;;;;5090601;28;20028;-71
2022/07/12 02:59:12;;;;;;;13.73;10.00;;;;;;;;;;5090232;28;20448;-71
2022/07/12 03:01:37;;;;;;;13.52;10.30;;;;;;;;;;5090613;28;20117;-70
2022/07/12 03:04:03;;;;;;;14.65;9.68;;;;;;;;;;5090214;28;20040;-71
2022/07/12 03:06:28;;;;;;;14.50;9.82;;;;;;;;;;5090350;28;20438;-70
2022/07/12 03:08:53;;;;;;;12.82;9.25;;;;;;;;;;5090152;28;20145;-72
2022/07/12 03:11:19;;;;;;;13.93;9.35;;;;;;;;;;5090761;28;20027;-71
2022/07/12 03:13:44;;;;;;;12.43;8.90;;;;;;;;;;5090009;28;20375;-71
2022/07/12 03:16:09;;;;;;;13.00;8.95;;;;;;;;;;5090333;28;20032;-71
2022/07/12 03:18:34;;;;;;;13.57;8.98;;;;;;;;;;5089862;28;20122;-71
2022/07/12 03:21:00;;;;;;;12.13;9.45;;;;;;;;;;5090582;28;20171;-71
2022/07/12 03:23:25;;;;;;;11.75;9.38;;;;;;;;;;5089886;28;20493;-71
2022/07/12 03:25:50;;;;;;;13.40;9.18;;;;;;;;;;5090439;28;20412;-71
2022/07/12 03:28:16;;;;;;;11.45;9.15;;;;;;;;;;5089345;28;20042;-71
2022/07/12 03:30:41;;;;;;;11.82;9.35;;;;;;;;;;5089483;28;20051;-71
2022/07/12 03:33:07;;;;;;;12.80;10.07;;;;;;;;;;5090143;28;20081;-71
2022/07/12 03:35:33;;;;;;;14.95;10.13;;;;;;;;;;5089865;28;20524;-71
2022/07/12 03:37:58;;;;;;;14.13;9.80;;;;;;;;;;5089423;28;20370;-71
2022/07/12 03:40:23;;;;;;;13.13;9.80;;;;;;;;;;5089695;28;20027;-71
2022/07/12 03:42:49;;;;;;;12.65;9.52;;;;;;;;;;5089895;28;20036;-71
2022/07/12 03:45:14;;;;;;;12.05;9.65;;;;;;;;;;5089926;28;20477;-71
2022/07/12 03:47:41;;;;;;;12.38;9.93;;;;;;;;;;5089439;28;20140;-71
2022/07/12 03:50:08;;;;;;;14.77;10.73;;;;;;;;;;5088090;28;20479;-71
2022/07/12 03:52:34;;;;;;;14.32;10.18;;;;;;;;;;5089641;28;20028;-70
2022/07/12 03:55:02;;;;;;;16.33;10.70;;;;;;;;;;5089341;28;20047;-71
2022/07/12 03:57:27;;;;;;;11.93;9.73;;;;;;;;;;5089268;28;20059;-71
2022/07/12 03:59:52;;;;;;;13.57;9.88;;;;;;;;;;5089259;28;20101;-72
2022/07/12 04:02:18;;;;;;;15.13;10.15;;;;;;;;;;5089169;28;20024;-72
2022/07/12 04:04:43;;;;;;;12.98;9.35;;;;;;;;;;5089107;28;20035;-72
2022/07/12 04:07:09;;;;;;;11.55;9.27;;;;;;;;;;5089023;28;20035;-71
2022/07/12 04:09:34;;;;;;;13.40;9.75;;;;;;;;;;5088846;28;20031;-71
2022/07/12 04:12:00;;;;;;;16.17;10.18;;;;;;;;;;5089062;28;20028;-72
2022/07/12 04:14:28;;;;;;;14.75;9.77;;;;;;;;;;5089143;28;20054;-72
2022/07/12 04:16:53;;;;;;;14.38;9.57;;;;;;;;;;5089078;28;20084;-71
2022/07/12 04:19:18;;;;;;;14.65;10.45;;;;;;;;;;5088697;28;20028;-71
2022/07/12 04:21:44;;;;;;;12.43;9.90;;;;;;;;;;5089016;28;20393;-71
2022/07/12 04:24:09;;;;;;;15.23;10.95;;;;;;;;;;5089053;28;20028;-71
2022/07/12 04:26:34;;;;;;;17.13;11.40;;;;;;;;;;5089100;28;20020;-71
2022/07/12 04:28:59;;;;;;;15.07;11.00;;;;;;;;;;5088513;28;20035;-71
2022/07/12 04:31:25;;;;;;;14.93;10.52;;;;;;;;;;5088775;28;20039;-72
2022/07/12 04:33:51;;;;;;;13.68;10.52;;;;;;;;;;5088613;28;20060;-72
2022/07/12 04:36:16;;;;;;;15.45;10.63;;;;;;;;;;5088611;28;20393;-72
2022/07/12 04:38:41;;;;;;;14.40;10.35;;;;;;;;;;5088452;28;20100;-71
2022/07/12 04:41:07;;;;;;;13.55;10.73;;;;;;;;;;5088362;28;20080;-71
2022/07/12 04:43:32;;;;;;;16.67;10.88;;;;;;;;;;5088536;28;20063;-71
2022/07/12 04:46:06;;;;;;;15.82;11.35;;;;;;;;;;5088699;28;20160;-72
2022/07/12 04:48:31;;;;;;;15.32;10.98;;;;;;;;;;5077695;28;20031;-73
2022/07/12 04:50:57;;;;;;;17.08;11.77;;;;;;;;;;5066552;28;20559;-72
2022/07/12 04:53:22;;;;;;;17.10;11.07;;;;;;;;;;5068150;28;20020;-72
2022/07/12 04:55:47;;;;;;;17.95;10.93;;;;;;;;;;5068357;28;20062;-73
2022/07/12 04:58:12;;;;;;;15.73;10.10;;;;;;;;;;5068309;28;20043;-70
2022/07/12 05:00:38;;;;;;;17.30;11.40;;;;;;;;;;5068181;28;20521;-72
2022/07/12 05:03:03;;;;;;;17.50;11.32;;;;;;;;;;5067986;28;20029;-72
2022/07/12 05:05:28;;;;;;;15.27;11.63;;;;;;;;;;5068433;28;20029;-72
2022/07/12 05:07:54;;;;;;;17.67;11.10;;;;;;;;;;5067842;28;20032;-72
2022/07/12 05:10:19;;;;;;;15.85;10.77;;;;;;;;;;5068080;28;20059;-70
2022/07/12 05:12:44;;;;;;;17.90;10.95;;;;;;;;;;5068058;28;20133;-71
2022/07/12 05:15:10;;;;;;;17.10;11.48;;;;;;;;;;5067781;28;20174;-71
2022/07/12 05:17:35;;;;;;;18.33;12.43;;;;;;;;;;5067866;28;20032;-71
2022/07/12 05:20:00;;;;;;;14.25;11.00;;;;;;;;;;5067578;28;20484;-71
2022/07/12 05:22:26;;;;;;;18.70;11.63;;;;;;;;;;5067857;28;20024;-71
2022/07/12 05:24:51;;;;;;;16.25;10.70;;;;;;;;;;5067575;28;20032;-71
2022/07/12 05:27:16;;;;;;;17.90;11.32;;;;;;;;;;5068074;28;20027;-71
2022/07/12 05:29:41;;;;;;;14.60;10.25;;;;;;;;;;5068126;28;20031;-71
2022/07/12 05:32:07;;;;;;;19.08;10.80;;;;;;;;;;5066128;28;20032;-71
2022/07/12 05:34:32;;;;;;;16.73;11.15;;;;;;;;;;5066596;28;20031;-71
2022/07/12 05:36:58;;;;;;;16.63;11.13;;;;;;;;;;5067418;28;20024;-70
2022/07/12 05:39:23;;;;;;;14.70;10.55;;;;;;;;;;5067553;28;20027;-71
2022/07/12 05:41:48;;;;;;;14.57;11.10;;;;;;;;;;5068406;28;20107;-71
2022/07/12 05:44:16;;;;;;;16.35;11.48;;;;;;;;;;5067766;28;20031;-71
2022/07/12 05:46:42;;;;;;;15.23;10.73;;;;;;;;;;5067706;28;20280;-70
2022/07/12 05:49:07;;;;;;;14.77;10.98;;;;;;;;;;5067409;28;20039;-70
2022/07/12 05:54:16;;;;;;;15.82;11.07;;;;;;;;;;5067050;28;20116;-71
2022/07/12 05:56:42;;;;;;;16.75;10.82;;;;;;;;;;5069232;28;20107;-71
2022/07/12 05:59:07;;;;;;;14.00;10.85;;;;;;;;;;5070035;28;20490;-71
2022/07/12 06:01:32;;;;;;;16.42;11.32;;;;;;;;;;5070508;28;20040;-71
2022/07/12 06:03:57;;;;;;;15.45;11.13;;;;;;;;;;5068244;28;20032;-73
2022/07/12 06:06:23;;;;;;;15.88;11.13;;;;;;;;;;5066640;28;20131;-71
2022/07/12 06:08:48;;;;;;;14.68;11.18;;;;;;;;;;5067041;28;22100;-71
2022/07/12 06:11:13;;;;;;;20.05;12.13;;;;;;;;;;5069878;28;20024;-72
2022/07/12 06:13:39;;;;;;;17.98;13.52;;;;;;;;;;5063661;28;20134;-71
2022/07/12 06:16:07;;;;;;;15.23;10.45;;;;;;;;;;5061850;28;20077;-71
2022/07/12 06:18:36;;;;;;;13.98;10.95;;;;;;;;;;5064676;28;20417;-71
2022/07/12 06:21:02;;;;;;;14.13;10.60;;;;;;;;;;5065415;28;20028;-71
2022/07/12 06:23:27;;;;;;;14.52;10.88;;;;;;;;;;5066720;28;20435;-72
2022/07/12 06:25:53;;;;;;;13.43;10.80;;;;;;;;;;5065636;28;20028;-72
2022/07/12 06:28:18;;;;;;;12.93;9.40;;;;;;;;;;5064023;28;20028;-71
2022/07/12 06:30:43;;;;;;;12.77;10.30;;;;;;;;;;5067116;28;20035;-72
2022/07/12 06:33:08;;;;;;;12.45;9.63;;;;;;;;;;5066229;28;20040;-72
2022/07/12 06:35:34;;;;;;;13.15;9.38;;;;;;;;;;5064290;28;20032;-72
2022/07/12 06:37:59;;;;;;;12.82;10.10;;;;;;;;;;5065837;28;20399;-72
2022/07/12 06:40:25;;;;;;;14.77;11.23;;;;;;;;;;5066455;28;20032;-73
2022/07/12 06:42:50;;;;;;;13.13;10.43;;;;;;;;;;5067624;28;20127;-73
2022/07/12 06:45:16;;;;;;;15.52;12.05;;;;;;;;;;5069194;28;20359;-71
2022/07/12 06:47:41;;;;;;;12.23;10.73;;;;;;;;;;5064991;28;20032;-71
2022/07/12 06:50:07;;;;;;;12.50;10.57;;;;;;;;;;5070228;28;20170;-72
2022/07/12 06:52:32;;;;;;;15.45;10.50;;;;;;;;;;5067448;28;20024;-72
2022/07/12 06:54:57;;;;;;;13.13;10.88;;;;;;;;;;5065678;28;20056;-72
2022/07/12 06:57:23;;;;;;;11.02;9.05;;;;;;;;;;5065882;28;20492;-73
2022/07/12 06:59:48;;;;;;;11.18;9.80;;;;;;;;;;5065252;28;20035;-71
2022/07/12 07:02:14;;;;;;;11.02;8.77;;;;;;;;;;5066947;28;20036;-71
2022/07/12 07:04:40;;;;;;;11.57;9.70;;;;;;;;;;5065753;28;20514;-72
2022/07/12 07:07:05;;;;;;;9.50;8.57;;;;;;;;;;5065373;28;20119;-74
2022/07/12 07:09:30;;;;;;;12.60;9.32;;;;;;;;;;5064454;28;20028;-70
2022/07/12 07:11:56;;;;;;;14.27;9.10;;;;;;;;;;5056049;28;20292;-71
2022/07/12 07:14:21;;;;;;;12.25;8.95;;;;;;;;;;5064807;28;20082;-70
2022/07/12 07:16:46;;;;;;;11.40;9.35;;;;;;;;;;5067292;28;20024;-71
2022/07/12 07:19:11;;;;;;;12.07;9.43;;;;;;;;;;5064566;28;20036;-70
2022/07/12 07:21:37;;;;;;;12.10;8.88;;;;;;;;;;5064256;28;20115;-71
2022/07/12 07:24:03;;;;;;;11.32;7.90;;;;;;;;;;5065920;28;20119;-73
2022/07/12 07:26:29;;;;;;;10.93;7.78;;;;;;;;;;5063472;28;20029;-72
2022/07/12 07:31:38;;;;;;;11.95;7.45;;;;;;;;;;5061764;28;20035;-68
2022/07/12 07:34:04;;;;;;;11.25;7.28;;;;;;;;;;5062569;28;20433;-71
2022/07/12 07:36:29;;;;;;;16.92;7.95;;;;;;;;;;5062541;28;20029;-74
2022/07/12 07:38:55;;;;;;;11.38;7.13;;;;;;;;;;5061838;28;20027;-70
2022/07/12 07:41:20;;;;;;;11.98;6.10;;;;;;;;;;5053138;28;20032;-72
2022/07/12 07:43:46;;;;;;;10.43;6.30;;;;;;;;;;5058553;28;20028;-72
2022/07/12 07:46:11;;;;;;;12.05;5.60;;;;;;;;;;5059657;28;20514;-70
2022/07/12 07:48:36;;;;;;;8.70;5.20;;;;;;;;;;5060522;28;20024;-72
2022/07/12 07:51:02;;;;;;;13.65;5.43;;;;;;;;;;5061903;28;20028;-69
2022/07/12 07:53:27;;;;;;;7.93;4.38;;;;;;;;;;5063296;28;20024;-73
2022/07/12 07:55:53;;;;;;;5.67;3.80;;;;;;;;;;5061842;28;20032;-74
2022/07/12 07:58:20;;;;;;;5.70;3.30;;;;;;;;;;5063019;28;20285;-70
2022/07/12 08:00:46;;;;;;;4.13;2.70;;;;;;;;;;5063083;28;20160;-73
2022/07/12 08:03:11;;;;;;;6.45;3.38;;;;;;;;;;5060490;28;20605;-74
2022/07/12 08:05:36;;;;;;;3.30;3.00;;;;;;;;;;5062231;28;20027;-67
2022/07/12 08:08:02;;;;;;;3.17;2.88;;;;;;;;;;5062099;28;20036;-71
2022/07/12 08:10:27;;;;;;;3.10;2.63;;;;;;;;;;5062491;28;20030;-70
2022/07/12 08:12:52;;;;;;;3.53;2.47;;;;;;;;;;5062783;28;20024;-70
2022/07/12 08:15:18;;;;;;;3.10;2.63;;;;;;;;;;5057880;28;20047;-70
2022/07/12 08:17:43;;;;;;;6.43;2.40;;;;;;;;;;5060869;28;20024;-70
2022/07/12 08:20:09;;;;;;;2.90;2.47;;;;;;;;;;5062584;28;20020;-70
2022/07/12 08:22:42;;;;;;;6.63;2.40;;;;;;;;;;5065327;28;20029;-70
2022/07/12 08:25:08;;;;;;;2.92;2.40;;;;;;;;;;5061227;28;20088;-69
2022/07/12 08:27:33;;;;;;;4.85;2.45;;;;;;;;;;5062007;28;20107;-72
2022/07/12 08:29:58;;;;;;;3.67;2.13;;;;;;;;;;5059973;28;20066;-73
2022/07/12 08:32:24;;;;;;;2.80;2.50;;;;;;;;;;5060467;28;20726;-69
2022/07/12 08:34:49;;;;;;;6.77;2.60;;;;;;;;;;5061000;28;20024;-71
2022/07/12 08:37:14;;;;;;;3.57;2.47;;;;;;;;;;5060609;28;20510;-72
2022/07/12 08:39:40;;;;;;;3.43;2.60;;;;;;;;;;5059858;28;20273;-73
2022/07/12 08:42:07;;;;;;;4.15;2.47;;;;;;;;;;5054932;28;20272;-70
2022/07/12 08:44:33;;;;;;;3.28;2.60;;;;;;;;;;5061081;28;20094;-70
2022/07/12 08:46:58;;;;;;;4.03;2.45;;;;;;;;;;5061550;28;20482;-72
2022/07/12 08:49:23;;;;;;;2.90;2.50;;;;;;;;;;5058296;28;20108;-71
2022/07/12 08:51:48;;;;;;;3.07;2.60;;;;;;;;;;5060221;28;20285;-70
2022/07/12 08:54:15;;;;;;;2.97;2.20;;;;;;;;;;5062331;28;20804;-71
2022/07/12 08:56:42;;;;;;;4.03;2.80;;;;;;;;;;5059969;28;20028;-68
2022/07/12 08:59:19;;;;;;;3.63;2.90;;;;;;;;;;5060364;28;20036;-68
2022/07/12 09:01:50;;;;;;;2.40;2.20;;;;;;;;;;5058992;28;20752;-71
2022/07/12 09:04:21;;;;;;;3.42;2.60;;;;;;;;;;5060699;28;20768;-71
2022/07/12 09:06:46;;;;;;;2.40;2.20;;;;;;;;;;5058840;28;20058;-73
2022/07/12 09:09:26;;;;;;;3.67;2.40;;;;;;;;;;5058872;28;20509;-71
2022/07/12 09:11:51;;;;;;;3.05;2.20;;;;;;;;;;5060283;28;20128;-72
2022/07/12 09:14:19;;;;;;;2.50;2.30;;;;;;;;;;5059469;28;20608;-69
2022/07/12 09:17:02;;;;;;;4.25;2.53;;;;;;;;;;5060373;28;20390;-73
2022/07/12 09:19:29;;;;;;;3.15;2.20;;;;;;;;;;5059931;28;20028;-71
2022/07/12 09:21:54;;;;;;;2.63;2.40;;;;;;;;;;5059349;28;20463;-73
2022/07/12 09:24:24;;;;;;;3.85;2.50;;;;;;;;;;5060766;28;20028;-67
2022/07/12 09:27:03;;;;;;;2.78;2.58;;;;;;;;;;5066035;28;20028;-69
2022/07/12 09:29:28;;;;;;;3.28;2.30;;;;;;;;;;5064881;28;20041;-71
2022/07/12 09:37:24;;;;;;;2.50;2.30;;;;;;;;;;5065646;28;20035;-71
2022/07/12 09:39:51;;;;;;;2.22;2.03;;;;;;;;;;5063522;28;20020;-71
2022/07/12 09:42:18;;;;;;;3.53;2.45;;;;;;;;;;5062847;28;20024;-69
2022/07/12 09:44:43;;;;;;;3.08;2.10;;;;;;;;;;5064308;28;20060;-71
2022/07/12 09:47:13;;;;;;;3.25;2.05;;;;;;;;;;5062160;28;20111;-69
2022/07/12 09:49:41;;;;;;;2.10;2.00;;;;;;;;;;5063434;28;20493;-68
2022/07/12 09:52:11;;;;;;;2.35;2.15;;;;;;;;;;5064234;28;20049;-70
2022/07/12 09:54:40;;;;;;;2.63;1.98;;;;;;;;;;5064342;28;20036;-71
2022/07/12 09:57:19;;;;;;;1.80;1.70;;;;;;;;;;5062271;28;20059;-71
2022/07/12 09:59:45;;;;;;;2.13;1.92;;;;;;;;;;5064448;28;20043;-73
2022/07/12 10:02:15;;;;;;;2.30;2.10;;;;;;;;;;5060036;28;20481;-73
2022/07/12 10:04:40;;;;;;;2.03;1.85;;;;;;;;;;5066655;28;20102;-72
2022/07/12 10:07:07;;;;;;;2.30;2.10;;;;;;;;;;5063840;28;20089;-73
2022/07/12 10:09:33;;;;;;;2.50;2.05;;;;;;;;;;5054747;28;20036;-74
2022/07/12 10:11:58;;;;;;;3.05;2.13;;;;;;;;;;5064517;28;20070;-72
2022/07/12 10:14:24;;;;;;;3.42;2.00;;;;;;;;;;5061965;28;20482;-71
2022/07/12 10:16:53;;;;;;;2.40;2.20;;;;;;;;;;5062131;28;20501;-73
2022/07/12 10:19:24;;;;;;;3.97;2.10;;;;;;;;;;5061059;28;20471;-72
2022/07/12 10:21:51;;;;;;;2.20;2.00;;;;;;;;;;5063377;28;20360;-72
2022/07/12 10:24:44;;;;;;;2.10;2.00;;;;;;;;;;5065079;28;20563;-73
2022/07/12 10:27:13;;;;;;;2.60;2.40;;;;;;;;;;5062693;28;20032;-72
2022/07/12 10:29:42;;;;;;;2.50;2.30;;;;;;;;;;5054394;28;20029;-74
2022/07/12 10:32:26;;;;;;;1.50;1.40;;;;;;;;;;5062602;28;20485;-73
2022/07/12 10:34:58;;;;;;;2.30;1.70;;;;;;;;;;5057144;28;20031;-73
2022/07/12 10:37:24;;;;;;;4.03;2.25;;;;;;;;;;5055426;28;20052;-71
2022/07/12 10:40:10;;;;;;;1.70;1.60;;;;;;;;;;5064323;28;20137;-73
2022/07/12 10:42:36;;;;;;;2.75;2.55;;;;;;;;;;5065606;28;20470;-73
2022/07/12 10:45:14;;;;;;;2.45;2.10;;;;;;;;;;5065346;28;20054;-73
2022/07/12 10:47:58;;;;;;;1.83;1.73;;;;;;;;;;5069877;28;20024;-70
2022/07/12 10:50:45;;;;;;;2.28;1.60;;;;;;;;;;5072106;28;20040;-72
2022/07/12 10:53:30;;;;;;;1.98;1.80;;;;;;;;;;5070293;28;20059;-73
2022/07/12 10:56:04;;;;;;;2.55;1.70;;;;;;;;;;5070545;28;20320;-72
2022/07/12 10:58:34;;;;;;;1.35;1.25;;;;;;;;;;5070328;28;20028;-71
2022/07/12 11:01:05;;;;;;;1.98;1.70;;;;;;;;;;5070328;28;20032;-73
2022/07/12 11:04:02;;;;;;;2.03;1.92;;;;;;;;;;5070005;28;20458;-72
2022/07/12 11:06:27;;;;;;;1.63;1.52;;;;;;;;;;5069701;28;20622;-70
2022/07/12 11:08:55;;;;;;;2.47;1.95;;;;;;;;;;5069626;28;20034;-73
2022/07/12 11:11:21;;;;;;;1.50;1.40;;;;;;;;;;5069986;28;20025;-72
2022/07/12 11:13:47;;;;;;;2.08;1.40;;;;;;;;;;5069942;28;20490;-75
2022/07/12 11:16:12;;;;;;;4.32;1.38;;;;;;;;;;5070136;28;20031;-71
2022/07/12 11:18:38;;;;;;;1.30;1.20;;;;;;;;;;5069375;28;20429;-71
2022/07/12 11:21:04;;;;;;;1.52;1.20;;;;;;;;;;5069355;28;20428;-71
2022/07/12 11:23:30;;;;;;;1.45;1.25;;;;;;;;;;5069676;28;20089;-72
2022/07/12 11:25:57;;;;;;;1.00;0.90;;;;;;;;;;5069698;28;20506;-71
2022/07/12 11:28:28;;;;;;;2.95;1.30;;;;;;;;;;5069536;28;20097;-72
2022/07/12 11:31:00;;;;;;;1.48;1.38;;;;;;;;;;5069886;28;20024;-73
2022/07/12 11:33:26;;;;;;;2.28;1.60;;;;;;;;;;5069684;28;20462;-72
2022/07/12 11:35:52;;;;;;;1.50;1.40;;;;;;;;;;5069715;28;20107;-72
2022/07/12 11:38:25;;;;;;;1.80;1.30;;;;;;;;;;5069441;28;20058;-73
2022/07/12 11:41:00;;;;;;;1.52;1.42;;;;;;;;;;5069414;28;20035;-73
2022/07/12 11:43:27;;;;;;;2.00;1.75;;;;;;;;;;5068969;28;20047;-72
2022/07/12 11:45:54;;;;;;;2.80;1.70;;;;;;;;;;5068958;28;20040;-73
2022/07/12 11:48:20;;;;;;;1.23;1.13;;;;;;;;;;5068858;28;20044;-72
2022/07/12 11:50:47;;;;;;;3.10;1.73;;;;;;;;;;5068446;28;20393;-72
2022/07/12 11:53:19;;;;;;;2.03;1.10;;;;;;;;;;5069206;28;20025;-73
2022/07/12 11:55:47;;;;;;;1.30;1.20;;;;;;;;;;5069276;28;20095;-72
2022/07/12 11:58:14;;;;;;;2.25;1.65;;;;;;;;;;5068835;28;20037;-72
2022/07/12 12:00:39;;;;;;;1.88;1.20;;;;;;;;;;5068209;28;20032;-75
2022/07/12 12:03:05;;;;;;;1.88;1.75;;;;;;;;;;5068172;28;20032;-76
2022/07/12 12:05:31;;;;;;;1.52;1.05;;;;;;;;;;5065401;28;20050;-74
2022/07/12 12:07:56;;;;;;;1.90;1.08;;;;;;;;;;5067283;28;20077;-75
2022/07/12 12:10:22;;;;;;;2.30;1.17;;;;;;;;;;5068417;28;20035;-74
2022/07/12 12:12:58;;;;;;;1.13;1.02;;;;;;;;;;5068666;28;20035;-74
2022/07/12 12:15:26;;;;;;;2.42;1.38;;;;;;;;;;5067434;28;20279;-74
2022/07/12 12:17:54;;;;;;;2.10;1.55;;;;;;;;;;5067953;28;20398;-73
2022/07/12 12:20:22;;;;;;;1.35;1.25;;;;;;;;;;5067036;28;20021;-74
2022/07/12 12:22:58;;;;;;;2.53;1.60;;;;;;;;;;5067744;28;20024;-76
2022/07/12 12:25:25;;;;;;;1.90;1.50;;;;;;;;;;5059203;28;20406;-74
2022/07/12 12:28:01;;;;;;;1.55;1.45;;;;;;;;;;5067232;28;20028;-75
2022/07/12 12:30:28;;;;;;;3.85;1.40;;;;;;;;;;5061055;28;20024;-76
2022/07/12 12:32:55;;;;;;;1.60;1.50;;;;;;;;;;5073382;28;20035;-73
2022/07/12 12:35:29;;;;;;;1.95;1.85;;;;;;;;;;5070653;28;20389;-75
2022/07/12 12:38:00;;;;;;;3.05;1.75;;;;;;;;;;5067406;28;20036;-74
2022/07/12 12:40:27;;;;;;;2.23;1.60;;;;;;;;;;5060323;28;20016;-75
2022/07/12 12:43:04;;;;;;;2.28;1.30;;;;;;;;;;5068646;28;20032;-74
2022/07/12 12:45:29;;;;;;;1.73;1.60;;;;;;;;;;5068353;28;20051;-75
2022/07/12 12:47:59;;;;;;;1.45;1.30;;;;;;;;;;5067749;28;20020;-77
2022/07/12 12:50:39;;;;;;;2.78;1.60;;;;;;;;;;5069475;28;20055;-74
2022/07/12 12:53:10;;;;;;;1.45;1.35;;;;;;;;;;5071657;28;20035;-78
2022/07/12 12:55:35;;;;;;;2.13;1.92;;;;;;;;;;5069165;28;20063;-77
2022/07/12 12:58:01;;;;;;;1.63;1.20;;;;;;;;;;5070537;28;20020;-77
2022/07/12 13:00:27;;;;;;;1.52;1.35;;;;;;;;;;5069635;28;20040;-76
2022/07/12 13:02:52;;;;;;;3.45;1.33;;;;;;;;;;5068924;28;20083;-75
2022/07/12 13:05:17;;;;;;;1.20;1.10;;;;;;;;;;5070810;28;20028;-75
2022/07/12 13:07:43;;;;;;;1.10;1.00;;;;;;;;;;5089864;22;20049;-73
2022/07/12 13:10:08;;;;;;;2.73;1.53;;;;;;;;;;5066944;28;20081;-74
2022/07/12 13:12:34;;;;;;;1.70;1.60;;;;;;;;;;5066838;28;20332;-69
2022/07/12 13:14:59;;;;;;;1.55;1.45;;;;;;;;;;5064034;28;20508;-72
2022/07/12 13:17:24;;;;;;;1.70;1.25;;;;;;;;;;5065847;28;20032;-72
2022/07/12 13:19:49;;;;;;;1.50;1.40;;;;;;;;;;5071114;28;20132;-71
2022/07/12 13:22:16;;;;;;;3.47;1.50;;;;;;;;;;5067677;28;20265;-71
2022/07/12 13:24:41;;;;;;;1.80;1.20;;;;;;;;;;5067486;28;20277;-71
2022/07/12 13:27:06;;;;;;;1.15;1.00;;;;;;;;;;5065917;28;20044;-71
2022/07/12 13:29:32;;;;;;;2.08;0.90;;;;;;;;;;5066703;28;20028;-71
2022/07/12 13:31:57;;;;;;;1.10;1.00;;;;;;;;;;5067682;28;20024;-70
2022/07/12 13:34:22;;;;;;;1.40;1.10;;;;;;;;;;5069140;28;20032;-70
2022/07/12 13:36:48;;;;;;;1.30;1.20;;;;;;;;;;5067356;28;20808;-73
2022/07/12 13:41:57;;;;;;;2.50;1.25;;;;;;;;;;5067547;28;20408;-71
2022/07/12 13:44:22;;;;;;;1.52;1.30;;;;;;;;;;5067667;28;20115;-71
2022/07/12 13:46:48;;;;;;;1.13;0.90;;;;;;;;;;5066497;28;20024;-71
2022/07/12 13:49:14;;;;;;;1.75;1.63;;;;;;;;;;5066323;28;20032;-70
2022/07/12 13:51:39;;;;;;;1.80;1.50;;;;;;;;;;5067446;28;20042;-72
2022/07/12 13:54:04;;;;;;;1.08;0.90;;;;;;;;;;5067435;28;20020;-72
2022/07/12 13:56:29;;;;;;;1.63;1.38;;;;;;;;;;5066798;28;20465;-70
2022/07/12 13:58:55;;;;;;;2.60;1.07;;;;;;;;;;5066175;28;20119;-68
2022/07/12 14:01:20;;;;;;;2.17;1.95;;;;;;;;;;5069611;28;20277;-72
2022/07/12 14:03:46;;;;;;;1.45;1.25;;;;;;;;;;5066718;28;20025;-71
2022/07/12 14:06:11;;;;;;;1.10;1.00;;;;;;;;;;5066778;28;20064;-68
2022/07/12 14:08:36;;;;;;;1.48;1.38;;;;;;;;;;5070566;28;20039;-69
2022/07/12 14:11:02;;;;;;;1.48;1.10;;;;;;;;;;5068176;28;20040;-71
2022/07/12 14:13:27;;;;;;;1.50;1.40;;;;;;;;;;5068735;28;20033;-72
2022/07/12 14:15:52;;;;;;;1.80;1.70;;;;;;;;;;5070121;28;20027;-71
2022/07/12 14:18:18;;;;;;;1.52;1.40;;;;;;;;;;5070034;28;20024;-71
2022/07/12 14:20:44;;;;;;;1.17;1.07;;;;;;;;;;5070389;28;20470;-70
2022/07/12 14:23:13;;;;;;;1.63;1.52;;;;;;;;;;5070419;28;20258;-71
2022/07/12 14:25:38;;;;;;;1.30;1.20;;;;;;;;;;5071302;28;20054;-69
2022/07/12 14:28:03;;;;;;;1.33;1.10;;;;;;;;;;5069966;28;20028;-71
2022/07/12 14:30:29;;;;;;;0.90;0.80;;;;;;;;;;5070577;28;20059;-70
2022/07/12 14:32:54;;;;;;;2.42;1.52;;;;;;;;;;5069792;28;20035;-71
2022/07/12 14:35:20;;;;;;;1.00;1.00;;;;;;;;;;5069892;28;20462;-72
2022/07/12 14:37:45;;;;;;;2.67;1.60;;;;;;;;;;5070643;28;20650;-71
2022/07/12 14:40:12;;;;;;;1.00;1.00;;;;;;;;;;5069836;28;20028;-72
2022/07/12 14:42:38;;;;;;;1.10;1.00;;;;;;;;;;5070680;28;20023;-72
2022/07/12 14:45:05;;;;;;;1.67;1.33;;;;;;;;;;5069526;28;20448;-72